sensor_id;sensor_type;location;lat;lon;timestamp;P1;durP1;ratioP1;P2;durP2;ratioP2
62724;SDS011;49026;52.600;4.694;2023-09-19T00:00:57;12.27;;;2.05;;
62724;SDS011;49026;52.600;4.694;2023-09-19T00:03:23;10.95;;;1.67;;
62724;SDS011;49026;52.600;4.694;2023-09-19T00:05:50;7.13;;;1.65;;
62724;SDS011;49026;52.600;4.694;2023-09-19T00:08:16;7.55;;;1.70;;
62724;SDS011;49026;52.600;4.694;2023-09-19T00:10:41;10.93;;;1.98;;
62724;SDS011;49026;52.600;4.694;2023-09-19T00:13:08;8.23;;;1.95;;
62724;SDS011;49026;52.600;4.694;2023-09-19T00:15:41;16.27;;;1.95;;
62724;SDS011;49026;52.600;4.694;2023-09-19T00:18:13;12.00;;;1.75;;
62724;SDS011;49026;52.600;4.694;2023-09-19T00:20:41;8.73;;;1.80;;
62724;SDS011;49026;52.600;4.694;2023-09-19T00:23:07;11.27;;;1.70;;
62724;SDS011;49026;52.600;4.694;2023-09-19T00:25:35;15.57;;;2.17;;
62724;SDS011;49026;52.600;4.694;2023-09-19T00:28:02;8.68;;;1.70;;
62724;SDS011;49026;52.600;4.694;2023-09-19T00:30:28;10.55;;;1.90;;
62724;SDS011;49026;52.600;4.694;2023-09-19T00:32:55;4.90;;;1.30;;
62724;SDS011;49026;52.600;4.694;2023-09-19T00:35:22;15.20;;;2.88;;
62724;SDS011;49026;52.600;4.694;2023-09-19T00:37:50;8.00;;;1.73;;
62724;SDS011;49026;52.600;4.694;2023-09-19T00:40:18;6.28;;;1.50;;
62724;SDS011;49026;52.600;4.694;2023-09-19T00:42:45;15.68;;;3.78;;
62724;SDS011;49026;52.600;4.694;2023-09-19T00:45:13;5.05;;;1.05;;
62724;SDS011;49026;52.600;4.694;2023-09-19T00:47:45;12.38;;;1.60;;
62724;SDS011;49026;52.600;4.694;2023-09-19T00:50:15;10.95;;;1.67;;
62724;SDS011;49026;52.600;4.694;2023-09-19T00:52:42;5.78;;;1.65;;
62724;SDS011;49026;52.600;4.694;2023-09-19T00:55:09;13.40;;;2.10;;
62724;SDS011;49026;52.600;4.694;2023-09-19T00:57:36;8.40;;;3.13;;
62724;SDS011;49026;52.600;4.694;2023-09-19T01:00:03;11.80;;;2.40;;
62724;SDS011;49026;52.600;4.694;2023-09-19T01:02:32;7.95;;;1.70;;
62724;SDS011;49026;52.600;4.694;2023-09-19T01:05:00;8.50;;;1.58;;
62724;SDS011;49026;52.600;4.694;2023-09-19T01:07:27;13.68;;;2.60;;
62724;SDS011;49026;52.600;4.694;2023-09-19T01:09:56;11.20;;;2.42;;
62724;SDS011;49026;52.600;4.694;2023-09-19T01:17:53;9.93;;;1.67;;
62724;SDS011;49026;52.600;4.694;2023-09-19T01:26:43;9.60;;;1.77;;
62724;SDS011;49026;52.600;4.694;2023-09-19T01:29:23;10.77;;;2.50;;
62724;SDS011;49026;52.600;4.694;2023-09-19T01:32:01;12.93;;;1.80;;
62724;SDS011;49026;52.600;4.694;2023-09-19T01:37:13;12.43;;;1.88;;
62724;SDS011;49026;52.600;4.694;2023-09-19T01:39:39;8.40;;;1.90;;
62724;SDS011;49026;52.600;4.694;2023-09-19T01:42:23;8.52;;;1.55;;
62724;SDS011;49026;52.600;4.694;2023-09-19T01:47:32;7.95;;;1.65;;
62724;SDS011;49026;52.600;4.694;2023-09-19T01:53:05;6.70;;;1.38;;
62724;SDS011;49026;52.600;4.694;2023-09-19T01:55:41;5.53;;;1.50;;
62724;SDS011;49026;52.600;4.694;2023-09-19T01:58:27;8.27;;;1.52;;
62724;SDS011;49026;52.600;4.694;2023-09-19T02:00:58;6.93;;;1.30;;
62724;SDS011;49026;52.600;4.694;2023-09-19T02:03:28;8.77;;;1.42;;
62724;SDS011;49026;52.600;4.694;2023-09-19T02:05:54;6.13;;;1.33;;
62724;SDS011;49026;52.600;4.694;2023-09-19T02:08:20;8.88;;;1.50;;
62724;SDS011;49026;52.600;4.694;2023-09-19T02:10:49;7.03;;;1.55;;
62724;SDS011;49026;52.600;4.694;2023-09-19T02:13:18;10.23;;;1.70;;
62724;SDS011;49026;52.600;4.694;2023-09-19T02:15:44;9.88;;;1.65;;
62724;SDS011;49026;52.600;4.694;2023-09-19T02:18:11;10.73;;;2.20;;
62724;SDS011;49026;52.600;4.694;2023-09-19T02:20:39;11.23;;;1.73;;
62724;SDS011;49026;52.600;4.694;2023-09-19T02:23:05;9.45;;;1.45;;
62724;SDS011;49026;52.600;4.694;2023-09-19T02:25:33;9.77;;;1.98;;
62724;SDS011;49026;52.600;4.694;2023-09-19T02:28:00;9.13;;;1.85;;
62724;SDS011;49026;52.600;4.694;2023-09-19T02:30:27;10.02;;;1.83;;
62724;SDS011;49026;52.600;4.694;2023-09-19T02:32:53;8.55;;;1.80;;
62724;SDS011;49026;52.600;4.694;2023-09-19T02:35:21;14.40;;;2.35;;
62724;SDS011;49026;52.600;4.694;2023-09-19T02:37:50;9.73;;;2.13;;
62724;SDS011;49026;52.600;4.694;2023-09-19T02:40:15;12.70;;;2.40;;
62724;SDS011;49026;52.600;4.694;2023-09-19T02:42:46;9.20;;;1.95;;
62724;SDS011;49026;52.600;4.694;2023-09-19T02:45:14;16.50;;;2.92;;
62724;SDS011;49026;52.600;4.694;2023-09-19T02:47:41;18.02;;;2.40;;
62724;SDS011;49026;52.600;4.694;2023-09-19T02:50:09;14.57;;;2.50;;
62724;SDS011;49026;52.600;4.694;2023-09-19T02:52:38;14.25;;;2.47;;
62724;SDS011;49026;52.600;4.694;2023-09-19T02:57:34;11.48;;;2.00;;
62724;SDS011;49026;52.600;4.694;2023-09-19T03:00:05;12.15;;;2.22;;
62724;SDS011;49026;52.600;4.694;2023-09-19T03:02:35;14.60;;;2.58;;
62724;SDS011;49026;52.600;4.694;2023-09-19T03:05:01;9.35;;;1.90;;
62724;SDS011;49026;52.600;4.694;2023-09-19T03:07:29;12.95;;;2.30;;
62724;SDS011;49026;52.600;4.694;2023-09-19T03:09:57;10.13;;;1.83;;
62724;SDS011;49026;52.600;4.694;2023-09-19T03:12:22;11.80;;;2.10;;
62724;SDS011;49026;52.600;4.694;2023-09-19T03:14:47;9.32;;;2.00;;
62724;SDS011;49026;52.600;4.694;2023-09-19T03:17:13;8.82;;;2.13;;
62724;SDS011;49026;52.600;4.694;2023-09-19T03:19:39;15.95;;;2.25;;
62724;SDS011;49026;52.600;4.694;2023-09-19T03:22:05;10.35;;;1.52;;
62724;SDS011;49026;52.600;4.694;2023-09-19T03:24:31;14.20;;;1.98;;
62724;SDS011;49026;52.600;4.694;2023-09-19T03:26:58;11.38;;;2.45;;
62724;SDS011;49026;52.600;4.694;2023-09-19T03:29:23;14.38;;;2.05;;
62724;SDS011;49026;52.600;4.694;2023-09-19T03:31:50;16.42;;;2.50;;
62724;SDS011;49026;52.600;4.694;2023-09-19T03:34:15;15.20;;;1.88;;
62724;SDS011;49026;52.600;4.694;2023-09-19T03:36:41;10.40;;;1.77;;
62724;SDS011;49026;52.600;4.694;2023-09-19T03:39:08;15.52;;;1.95;;
62724;SDS011;49026;52.600;4.694;2023-09-19T03:41:34;12.75;;;2.00;;
62724;SDS011;49026;52.600;4.694;2023-09-19T03:44:01;12.82;;;2.25;;
62724;SDS011;49026;52.600;4.694;2023-09-19T03:46:27;17.42;;;2.97;;
62724;SDS011;49026;52.600;4.694;2023-09-19T03:49:00;7.05;;;1.52;;
62724;SDS011;49026;52.600;4.694;2023-09-19T03:51:27;12.40;;;2.25;;
62724;SDS011;49026;52.600;4.694;2023-09-19T03:53:53;12.27;;;1.75;;
62724;SDS011;49026;52.600;4.694;2023-09-19T03:56:18;13.57;;;2.55;;
62724;SDS011;49026;52.600;4.694;2023-09-19T03:58:43;9.73;;;1.85;;
62724;SDS011;49026;52.600;4.694;2023-09-19T04:01:09;12.82;;;2.78;;
62724;SDS011;49026;52.600;4.694;2023-09-19T04:03:35;10.45;;;2.15;;
62724;SDS011;49026;52.600;4.694;2023-09-19T04:06:11;10.10;;;2.00;;
62724;SDS011;49026;52.600;4.694;2023-09-19T04:08:40;11.33;;;2.20;;
62724;SDS011;49026;52.600;4.694;2023-09-19T04:11:07;9.90;;;2.03;;
62724;SDS011;49026;52.600;4.694;2023-09-19T04:13:35;11.65;;;2.08;;
62724;SDS011;49026;52.600;4.694;2023-09-19T04:16:01;12.65;;;1.92;;
62724;SDS011;49026;52.600;4.694;2023-09-19T04:18:29;9.77;;;1.92;;
62724;SDS011;49026;52.600;4.694;2023-09-19T04:20:57;11.73;;;2.30;;
62724;SDS011;49026;52.600;4.694;2023-09-19T04:23:23;11.38;;;2.00;;
62724;SDS011;49026;52.600;4.694;2023-09-19T04:25:50;8.00;;;1.60;;
62724;SDS011;49026;52.600;4.694;2023-09-19T04:28:18;11.27;;;2.67;;
62724;SDS011;49026;52.600;4.694;2023-09-19T04:30:43;9.40;;;1.92;;
62724;SDS011;49026;52.600;4.694;2023-09-19T04:33:09;13.02;;;1.73;;
62724;SDS011;49026;52.600;4.694;2023-09-19T04:35:34;9.57;;;2.08;;
62724;SDS011;49026;52.600;4.694;2023-09-19T04:38:00;10.65;;;1.92;;
62724;SDS011;49026;52.600;4.694;2023-09-19T04:40:26;16.48;;;2.65;;
62724;SDS011;49026;52.600;4.694;2023-09-19T04:42:55;11.77;;;2.03;;
62724;SDS011;49026;52.600;4.694;2023-09-19T04:45:22;12.77;;;2.00;;
62724;SDS011;49026;52.600;4.694;2023-09-19T04:47:47;11.90;;;1.75;;
62724;SDS011;49026;52.600;4.694;2023-09-19T04:50:13;15.48;;;2.03;;
62724;SDS011;49026;52.600;4.694;2023-09-19T04:52:41;9.02;;;1.50;;
62724;SDS011;49026;52.600;4.694;2023-09-19T04:55:14;9.20;;;1.35;;
62724;SDS011;49026;52.600;4.694;2023-09-19T04:57:49;12.77;;;2.33;;
62724;SDS011;49026;52.600;4.694;2023-09-19T05:00:16;9.27;;;1.80;;
62724;SDS011;49026;52.600;4.694;2023-09-19T05:02:44;11.70;;;2.40;;
62724;SDS011;49026;52.600;4.694;2023-09-19T05:05:11;7.22;;;2.33;;
62724;SDS011;49026;52.600;4.694;2023-09-19T05:07:41;12.18;;;2.08;;
62724;SDS011;49026;52.600;4.694;2023-09-19T05:10:09;6.07;;;1.58;;
62724;SDS011;49026;52.600;4.694;2023-09-19T05:12:35;9.73;;;2.22;;
62724;SDS011;49026;52.600;4.694;2023-09-19T05:15:04;16.83;;;2.63;;
62724;SDS011;49026;52.600;4.694;2023-09-19T05:17:32;12.50;;;2.20;;
62724;SDS011;49026;52.600;4.694;2023-09-19T05:19:58;11.77;;;2.13;;
62724;SDS011;49026;52.600;4.694;2023-09-19T05:22:31;11.48;;;1.77;;
62724;SDS011;49026;52.600;4.694;2023-09-19T05:24:59;11.13;;;2.45;;
62724;SDS011;49026;52.600;4.694;2023-09-19T05:27:29;12.27;;;2.45;;
62724;SDS011;49026;52.600;4.694;2023-09-19T05:29:55;15.68;;;2.80;;
62724;SDS011;49026;52.600;4.694;2023-09-19T05:32:23;12.48;;;2.47;;
62724;SDS011;49026;52.600;4.694;2023-09-19T05:34:48;12.10;;;2.13;;
62724;SDS011;49026;52.600;4.694;2023-09-19T05:37:14;11.63;;;2.17;;
62724;SDS011;49026;52.600;4.694;2023-09-19T05:39:42;10.45;;;2.20;;
62724;SDS011;49026;52.600;4.694;2023-09-19T05:42:08;11.07;;;1.85;;
62724;SDS011;49026;52.600;4.694;2023-09-19T05:44:34;9.00;;;2.00;;
62724;SDS011;49026;52.600;4.694;2023-09-19T05:47:00;13.57;;;2.20;;
62724;SDS011;49026;52.600;4.694;2023-09-19T05:49:25;12.63;;;2.72;;
62724;SDS011;49026;52.600;4.694;2023-09-19T05:51:51;10.95;;;2.35;;
62724;SDS011;49026;52.600;4.694;2023-09-19T05:54:21;9.20;;;1.90;;
62724;SDS011;49026;52.600;4.694;2023-09-19T05:56:49;16.70;;;2.63;;
62724;SDS011;49026;52.600;4.694;2023-09-19T05:59:18;15.25;;;2.60;;
62724;SDS011;49026;52.600;4.694;2023-09-19T06:01:43;9.55;;;1.70;;
62724;SDS011;49026;52.600;4.694;2023-09-19T06:04:12;11.05;;;2.58;;
62724;SDS011;49026;52.600;4.694;2023-09-19T06:06:38;13.85;;;2.17;;
62724;SDS011;49026;52.600;4.694;2023-09-19T06:09:05;20.77;;;2.42;;
62724;SDS011;49026;52.600;4.694;2023-09-19T06:11:35;14.38;;;2.47;;
62724;SDS011;49026;52.600;4.694;2023-09-19T06:14:03;10.43;;;1.83;;
62724;SDS011;49026;52.600;4.694;2023-09-19T06:16:29;13.43;;;2.90;;
62724;SDS011;49026;52.600;4.694;2023-09-19T06:18:57;8.02;;;1.60;;
62724;SDS011;49026;52.600;4.694;2023-09-19T06:21:23;17.42;;;3.40;;
62724;SDS011;49026;52.600;4.694;2023-09-19T06:23:51;11.73;;;1.95;;
62724;SDS011;49026;52.600;4.694;2023-09-19T06:26:17;15.75;;;2.35;;
62724;SDS011;49026;52.600;4.694;2023-09-19T06:28:44;13.13;;;2.30;;
62724;SDS011;49026;52.600;4.694;2023-09-19T06:31:12;8.52;;;2.10;;
62724;SDS011;49026;52.600;4.694;2023-09-19T06:33:40;14.32;;;2.45;;
62724;SDS011;49026;52.600;4.694;2023-09-19T06:36:06;9.57;;;2.00;;
62724;SDS011;49026;52.600;4.694;2023-09-19T06:38:32;14.32;;;2.13;;
62724;SDS011;49026;52.600;4.694;2023-09-19T06:41:01;10.50;;;2.20;;
62724;SDS011;49026;52.600;4.694;2023-09-19T06:43:33;10.93;;;1.85;;
62724;SDS011;49026;52.600;4.694;2023-09-19T06:46:00;21.13;;;3.60;;
62724;SDS011;49026;52.600;4.694;2023-09-19T06:48:26;11.43;;;2.58;;
62724;SDS011;49026;52.600;4.694;2023-09-19T06:50:54;10.98;;;2.20;;
62724;SDS011;49026;52.600;4.694;2023-09-19T06:53:20;13.40;;;1.98;;
62724;SDS011;49026;52.600;4.694;2023-09-19T06:55:45;9.52;;;1.95;;
62724;SDS011;49026;52.600;4.694;2023-09-19T06:58:12;10.57;;;2.25;;
62724;SDS011;49026;52.600;4.694;2023-09-19T07:00:44;16.15;;;2.95;;
62724;SDS011;49026;52.600;4.694;2023-09-19T07:03:12;10.65;;;2.55;;
62724;SDS011;49026;52.600;4.694;2023-09-19T07:05:38;12.25;;;2.30;;
62724;SDS011;49026;52.600;4.694;2023-09-19T07:08:06;12.13;;;2.10;;
62724;SDS011;49026;52.600;4.694;2023-09-19T07:10:32;11.35;;;2.33;;
62724;SDS011;49026;52.600;4.694;2023-09-19T07:12:59;13.18;;;2.20;;
62724;SDS011;49026;52.600;4.694;2023-09-19T07:15:27;15.32;;;2.22;;
62724;SDS011;49026;52.600;4.694;2023-09-19T07:17:56;12.57;;;2.25;;
62724;SDS011;49026;52.600;4.694;2023-09-19T07:20:22;10.75;;;2.45;;
62724;SDS011;49026;52.600;4.694;2023-09-19T07:22:50;12.88;;;2.28;;
62724;SDS011;49026;52.600;4.694;2023-09-19T07:25:15;15.80;;;2.33;;
62724;SDS011;49026;52.600;4.694;2023-09-19T07:27:42;13.38;;;2.22;;
62724;SDS011;49026;52.600;4.694;2023-09-19T07:30:08;14.55;;;2.70;;
62724;SDS011;49026;52.600;4.694;2023-09-19T07:32:34;14.93;;;2.72;;
62724;SDS011;49026;52.600;4.694;2023-09-19T07:35:01;10.15;;;2.45;;
62724;SDS011;49026;52.600;4.694;2023-09-19T07:37:28;11.60;;;2.20;;
62724;SDS011;49026;52.600;4.694;2023-09-19T07:39:54;16.52;;;2.78;;
62724;SDS011;49026;52.600;4.694;2023-09-19T07:42:22;16.35;;;3.17;;
62724;SDS011;49026;52.600;4.694;2023-09-19T07:44:47;9.88;;;2.20;;
62724;SDS011;49026;52.600;4.694;2023-09-19T07:47:15;11.88;;;2.45;;
62724;SDS011;49026;52.600;4.694;2023-09-19T07:49:41;12.18;;;2.40;;
62724;SDS011;49026;52.600;4.694;2023-09-19T07:52:07;10.32;;;2.00;;
62724;SDS011;49026;52.600;4.694;2023-09-19T07:54:34;9.60;;;2.45;;
62724;SDS011;49026;52.600;4.694;2023-09-19T07:57:02;20.25;;;2.95;;
62724;SDS011;49026;52.600;4.694;2023-09-19T07:59:27;14.00;;;2.80;;
62724;SDS011;49026;52.600;4.694;2023-09-19T08:01:55;15.50;;;2.70;;
62724;SDS011;49026;52.600;4.694;2023-09-19T08:04:23;15.38;;;3.28;;
62724;SDS011;49026;52.600;4.694;2023-09-19T08:06:50;14.90;;;2.72;;
62724;SDS011;49026;52.600;4.694;2023-09-19T08:09:17;11.05;;;2.63;;
62724;SDS011;49026;52.600;4.694;2023-09-19T08:11:45;14.55;;;2.30;;
62724;SDS011;49026;52.600;4.694;2023-09-19T08:14:12;9.32;;;2.13;;
62724;SDS011;49026;52.600;4.694;2023-09-19T08:16:39;17.25;;;2.92;;
62724;SDS011;49026;52.600;4.694;2023-09-19T08:19:05;9.77;;;2.40;;
62724;SDS011;49026;52.600;4.694;2023-09-19T08:21:33;16.52;;;2.90;;
62724;SDS011;49026;52.600;4.694;2023-09-19T08:23:58;13.13;;;2.45;;
62724;SDS011;49026;52.600;4.694;2023-09-19T08:26:23;14.60;;;3.08;;
62724;SDS011;49026;52.600;4.694;2023-09-19T08:28:49;10.88;;;2.28;;
62724;SDS011;49026;52.600;4.694;2023-09-19T08:31:16;15.50;;;2.75;;
62724;SDS011;49026;52.600;4.694;2023-09-19T08:33:42;11.10;;;3.20;;
62724;SDS011;49026;52.600;4.694;2023-09-19T08:36:09;12.50;;;2.83;;
62724;SDS011;49026;52.600;4.694;2023-09-19T08:38:35;13.48;;;2.75;;
62724;SDS011;49026;52.600;4.694;2023-09-19T08:41:00;11.82;;;2.35;;
62724;SDS011;49026;52.600;4.694;2023-09-19T08:43:29;18.85;;;3.10;;
62724;SDS011;49026;52.600;4.694;2023-09-19T08:46:02;16.95;;;2.83;;
62724;SDS011;49026;52.600;4.694;2023-09-19T08:48:34;20.08;;;2.80;;
62724;SDS011;49026;52.600;4.694;2023-09-19T08:51:07;13.65;;;2.95;;
62724;SDS011;49026;52.600;4.694;2023-09-19T08:56:11;11.02;;;1.88;;
62724;SDS011;49026;52.600;4.694;2023-09-19T08:58:53;12.68;;;1.48;;
62724;SDS011;49026;52.600;4.694;2023-09-19T09:01:24;13.63;;;2.17;;
62724;SDS011;49026;52.600;4.694;2023-09-19T09:03:58;14.32;;;2.42;;
62724;SDS011;49026;52.600;4.694;2023-09-19T09:06:24;12.82;;;2.58;;
62724;SDS011;49026;52.600;4.694;2023-09-19T09:08:53;10.90;;;2.15;;
62724;SDS011;49026;52.600;4.694;2023-09-19T09:11:21;13.30;;;3.13;;
62724;SDS011;49026;52.600;4.694;2023-09-19T09:13:49;13.35;;;2.53;;
62724;SDS011;49026;52.600;4.694;2023-09-19T09:16:15;13.27;;;2.30;;
62724;SDS011;49026;52.600;4.694;2023-09-19T09:18:43;16.90;;;2.90;;
62724;SDS011;49026;52.600;4.694;2023-09-19T09:21:10;19.83;;;2.95;;
62724;SDS011;49026;52.600;4.694;2023-09-19T09:23:35;15.05;;;2.55;;
62724;SDS011;49026;52.600;4.694;2023-09-19T09:26:01;18.40;;;3.03;;
62724;SDS011;49026;52.600;4.694;2023-09-19T09:30:58;18.25;;;2.63;;
62724;SDS011;49026;52.600;4.694;2023-09-19T09:33:24;17.63;;;3.08;;
62724;SDS011;49026;52.600;4.694;2023-09-19T09:35:50;14.13;;;2.70;;
62724;SDS011;49026;52.600;4.694;2023-09-19T09:38:24;18.90;;;4.32;;
62724;SDS011;49026;52.600;4.694;2023-09-19T09:40:52;16.27;;;3.20;;
62724;SDS011;49026;52.600;4.694;2023-09-19T09:43:25;16.77;;;2.97;;
62724;SDS011;49026;52.600;4.694;2023-09-19T09:46:08;15.02;;;3.20;;
62724;SDS011;49026;52.600;4.694;2023-09-19T09:49:08;17.37;;;3.00;;
62724;SDS011;49026;52.600;4.694;2023-09-19T09:54:32;16.05;;;3.80;;
62724;SDS011;49026;52.600;4.694;2023-09-19T09:57:04;11.95;;;2.75;;
62724;SDS011;49026;52.600;4.694;2023-09-19T09:59:50;18.40;;;3.67;;
62724;SDS011;49026;52.600;4.694;2023-09-19T10:02:25;18.98;;;3.90;;
62724;SDS011;49026;52.600;4.694;2023-09-19T10:04:57;14.90;;;3.65;;
62724;SDS011;49026;52.600;4.694;2023-09-19T10:07:49;14.75;;;3.33;;
62724;SDS011;49026;52.600;4.694;2023-09-19T10:10:37;14.43;;;3.15;;
62724;SDS011;49026;52.600;4.694;2023-09-19T10:13:06;15.88;;;2.78;;
62724;SDS011;49026;52.600;4.694;2023-09-19T10:15:34;21.17;;;3.90;;
62724;SDS011;49026;52.600;4.694;2023-09-19T10:18:06;24.65;;;4.00;;
62724;SDS011;49026;52.600;4.694;2023-09-19T10:20:35;20.17;;;3.63;;
62724;SDS011;49026;52.600;4.694;2023-09-19T10:23:09;17.38;;;3.88;;
62724;SDS011;49026;52.600;4.694;2023-09-19T10:25:38;19.88;;;3.38;;
62724;SDS011;49026;52.600;4.694;2023-09-19T10:28:11;15.43;;;3.05;;
62724;SDS011;49026;52.600;4.694;2023-09-19T10:30:39;28.60;;;4.85;;
62724;SDS011;49026;52.600;4.694;2023-09-19T10:33:09;15.18;;;2.75;;
62724;SDS011;49026;52.600;4.694;2023-09-19T10:35:37;16.25;;;2.55;;
62724;SDS011;49026;52.600;4.694;2023-09-19T10:38:07;20.77;;;3.20;;
62724;SDS011;49026;52.600;4.694;2023-09-19T10:40:35;17.40;;;3.38;;
62724;SDS011;49026;52.600;4.694;2023-09-19T10:43:05;17.48;;;3.55;;
62724;SDS011;49026;52.600;4.694;2023-09-19T10:45:32;16.02;;;2.55;;
62724;SDS011;49026;52.600;4.694;2023-09-19T10:48:02;17.25;;;3.28;;
62724;SDS011;49026;52.600;4.694;2023-09-19T10:50:32;20.55;;;3.17;;
62724;SDS011;49026;52.600;4.694;2023-09-19T10:53:02;12.18;;;2.42;;
62724;SDS011;49026;52.600;4.694;2023-09-19T10:55:33;16.83;;;3.13;;
62724;SDS011;49026;52.600;4.694;2023-09-19T10:58:00;10.80;;;2.10;;
62724;SDS011;49026;52.600;4.694;2023-09-19T11:00:56;21.20;;;3.13;;
62724;SDS011;49026;52.600;4.694;2023-09-19T11:03:30;17.23;;;2.63;;
62724;SDS011;49026;52.600;4.694;2023-09-19T11:22:27;17.45;;;3.22;;
62724;SDS011;49026;52.600;4.694;2023-09-19T11:28:27;20.00;;;3.35;;
62724;SDS011;49026;52.600;4.694;2023-09-19T11:30:56;14.73;;;3.13;;
62724;SDS011;49026;52.600;4.694;2023-09-19T11:33:24;19.42;;;3.22;;
62724;SDS011;49026;52.600;4.694;2023-09-19T11:35:59;22.65;;;3.10;;
62724;SDS011;49026;52.600;4.694;2023-09-19T11:43:46;7.78;;;2.10;;
62724;SDS011;49026;52.600;4.694;2023-09-19T11:46:13;22.48;;;3.63;;
62724;SDS011;49026;52.600;4.694;2023-09-19T11:48:41;15.18;;;2.55;;
62724;SDS011;49026;52.600;4.694;2023-09-19T11:51:12;8.90;;;2.83;;
62724;SDS011;49026;52.600;4.694;2023-09-19T11:53:51;12.48;;;3.58;;
62724;SDS011;49026;52.600;4.694;2023-09-19T11:56:27;21.98;;;3.42;;
62724;SDS011;49026;52.600;4.694;2023-09-19T11:58:59;23.23;;;3.85;;
62724;SDS011;49026;52.600;4.694;2023-09-19T12:01:31;19.10;;;3.65;;
62724;SDS011;49026;52.600;4.694;2023-09-19T12:04:00;21.38;;;4.15;;
62724;SDS011;49026;52.600;4.694;2023-09-19T12:06:27;25.27;;;4.25;;
62724;SDS011;49026;52.600;4.694;2023-09-19T12:08:57;20.98;;;3.42;;
62724;SDS011;49026;52.600;4.694;2023-09-19T12:11:29;18.17;;;3.55;;
62724;SDS011;49026;52.600;4.694;2023-09-19T12:13:59;19.67;;;3.97;;
62724;SDS011;49026;52.600;4.694;2023-09-19T12:16:29;19.25;;;4.05;;
62724;SDS011;49026;52.600;4.694;2023-09-19T12:18:55;18.17;;;2.90;;
62724;SDS011;49026;52.600;4.694;2023-09-19T12:21:27;20.48;;;3.67;;
62724;SDS011;49026;52.600;4.694;2023-09-19T12:26:29;20.95;;;3.92;;
62724;SDS011;49026;52.600;4.694;2023-09-19T12:28:59;22.60;;;3.45;;
62724;SDS011;49026;52.600;4.694;2023-09-19T12:31:26;25.90;;;4.80;;
62724;SDS011;49026;52.600;4.694;2023-09-19T12:33:57;25.45;;;4.47;;
62724;SDS011;49026;52.600;4.694;2023-09-19T12:36:26;12.73;;;2.72;;
62724;SDS011;49026;52.600;4.694;2023-09-19T12:38:57;23.55;;;4.30;;
62724;SDS011;49026;52.600;4.694;2023-09-19T12:41:24;22.97;;;3.90;;
62724;SDS011;49026;52.600;4.694;2023-09-19T12:43:50;22.30;;;4.20;;
62724;SDS011;49026;52.600;4.694;2023-09-19T12:46:22;31.63;;;4.40;;
62724;SDS011;49026;52.600;4.694;2023-09-19T12:49:14;27.52;;;4.60;;
62724;SDS011;49026;52.600;4.694;2023-09-19T12:51:42;35.70;;;4.85;;
62724;SDS011;49026;52.600;4.694;2023-09-19T12:54:10;19.98;;;4.78;;
62724;SDS011;49026;52.600;4.694;2023-09-19T12:56:44;19.90;;;3.70;;
62724;SDS011;49026;52.600;4.694;2023-09-19T12:59:12;27.85;;;4.90;;
62724;SDS011;49026;52.600;4.694;2023-09-19T13:01:39;24.98;;;3.95;;
62724;SDS011;49026;52.600;4.694;2023-09-19T13:04:15;20.70;;;4.40;;
62724;SDS011;49026;52.600;4.694;2023-09-19T13:06:48;19.98;;;4.30;;
62724;SDS011;49026;52.600;4.694;2023-09-19T13:09:15;30.60;;;4.88;;
62724;SDS011;49026;52.600;4.694;2023-09-19T13:11:42;20.23;;;4.13;;
62724;SDS011;49026;52.600;4.694;2023-09-19T13:16:56;25.52;;;4.50;;
62724;SDS011;49026;52.600;4.694;2023-09-19T13:19:35;22.70;;;4.18;;
62724;SDS011;49026;52.600;4.694;2023-09-19T13:25:08;24.48;;;4.13;;
62724;SDS011;49026;52.600;4.694;2023-09-19T13:27:43;24.05;;;4.53;;
62724;SDS011;49026;52.600;4.694;2023-09-19T13:30:10;26.50;;;4.97;;
62724;SDS011;49026;52.600;4.694;2023-09-19T13:32:39;17.13;;;4.30;;
62724;SDS011;49026;52.600;4.694;2023-09-19T13:35:08;22.20;;;4.55;;
62724;SDS011;49026;52.600;4.694;2023-09-19T13:37:34;25.95;;;4.65;;
62724;SDS011;49026;52.600;4.694;2023-09-19T13:40:06;25.95;;;4.40;;
62724;SDS011;49026;52.600;4.694;2023-09-19T13:42:43;22.50;;;4.47;;
62724;SDS011;49026;52.600;4.694;2023-09-19T13:45:09;25.67;;;4.68;;
62724;SDS011;49026;52.600;4.694;2023-09-19T13:47:37;31.10;;;5.30;;
62724;SDS011;49026;52.600;4.694;2023-09-19T13:50:03;22.23;;;4.13;;
62724;SDS011;49026;52.600;4.694;2023-09-19T13:52:32;15.35;;;3.55;;
62724;SDS011;49026;52.600;4.694;2023-09-19T13:55:03;24.58;;;4.28;;
62724;SDS011;49026;52.600;4.694;2023-09-19T13:57:30;21.58;;;4.32;;
62724;SDS011;49026;52.600;4.694;2023-09-19T13:59:56;31.33;;;5.85;;
62724;SDS011;49026;52.600;4.694;2023-09-19T14:02:22;34.35;;;6.40;;
62724;SDS011;49026;52.600;4.694;2023-09-19T14:04:51;27.77;;;4.85;;
62724;SDS011;49026;52.600;4.694;2023-09-19T14:07:17;21.83;;;3.78;;
62724;SDS011;49026;52.600;4.694;2023-09-19T14:09:45;17.45;;;3.55;;
62724;SDS011;49026;52.600;4.694;2023-09-19T14:12:10;25.35;;;4.68;;
62724;SDS011;49026;52.600;4.694;2023-09-19T14:14:40;27.70;;;5.40;;
62724;SDS011;49026;52.600;4.694;2023-09-19T14:17:05;37.60;;;7.05;;
62724;SDS011;49026;52.600;4.694;2023-09-19T14:19:36;30.88;;;5.78;;
62724;SDS011;49026;52.600;4.694;2023-09-19T14:22:02;26.83;;;6.22;;
62724;SDS011;49026;52.600;4.694;2023-09-19T14:24:35;28.85;;;5.32;;
62724;SDS011;49026;52.600;4.694;2023-09-19T14:27:01;21.27;;;4.53;;
62724;SDS011;49026;52.600;4.694;2023-09-19T14:29:29;31.20;;;6.95;;
62724;SDS011;49026;52.600;4.694;2023-09-19T14:31:55;26.10;;;4.90;;
62724;SDS011;49026;52.600;4.694;2023-09-19T14:34:23;31.10;;;5.30;;
62724;SDS011;49026;52.600;4.694;2023-09-19T14:36:48;23.92;;;5.47;;
62724;SDS011;49026;52.600;4.694;2023-09-19T14:39:14;23.95;;;5.40;;
62724;SDS011;49026;52.600;4.694;2023-09-19T14:41:41;19.77;;;4.53;;
62724;SDS011;49026;52.600;4.694;2023-09-19T14:44:06;24.52;;;5.35;;
62724;SDS011;49026;52.600;4.694;2023-09-19T14:46:32;27.17;;;5.90;;
62724;SDS011;49026;52.600;4.694;2023-09-19T14:48:57;34.40;;;5.22;;
62724;SDS011;49026;52.600;4.694;2023-09-19T14:51:29;37.28;;;6.40;;
62724;SDS011;49026;52.600;4.694;2023-09-19T14:53:57;36.72;;;6.50;;
62724;SDS011;49026;52.600;4.694;2023-09-19T14:58:53;31.60;;;5.95;;
62724;SDS011;49026;52.600;4.694;2023-09-19T15:01:18;31.15;;;5.20;;
62724;SDS011;49026;52.600;4.694;2023-09-19T15:03:43;37.28;;;5.95;;
62724;SDS011;49026;52.600;4.694;2023-09-19T15:06:11;38.42;;;5.78;;
62724;SDS011;49026;52.600;4.694;2023-09-19T15:08:44;36.97;;;6.55;;
62724;SDS011;49026;52.600;4.694;2023-09-19T15:11:13;43.75;;;5.95;;
62724;SDS011;49026;52.600;4.694;2023-09-19T15:13:47;36.40;;;6.68;;
62724;SDS011;49026;52.600;4.694;2023-09-19T15:16:13;33.75;;;4.90;;
62724;SDS011;49026;52.600;4.694;2023-09-19T15:18:42;46.72;;;6.88;;
62724;SDS011;49026;52.600;4.694;2023-09-19T15:21:10;38.72;;;5.70;;
62724;SDS011;49026;52.600;4.694;2023-09-19T15:23:37;44.63;;;6.65;;
62724;SDS011;49026;52.600;4.694;2023-09-19T15:26:12;40.50;;;6.57;;
62724;SDS011;49026;52.600;4.694;2023-09-19T15:28:41;37.92;;;5.57;;
62724;SDS011;49026;52.600;4.694;2023-09-19T15:31:16;31.90;;;5.63;;
62724;SDS011;49026;52.600;4.694;2023-09-19T15:33:41;37.90;;;6.25;;
62724;SDS011;49026;52.600;4.694;2023-09-19T15:36:07;41.67;;;6.70;;
62724;SDS011;49026;52.600;4.694;2023-09-19T15:41:22;32.83;;;8.32;;
62724;SDS011;49026;52.600;4.694;2023-09-19T15:43:48;44.88;;;6.07;;
62724;SDS011;49026;52.600;4.694;2023-09-19T15:46:16;45.13;;;6.80;;
62724;SDS011;49026;52.600;4.694;2023-09-19T15:48:42;45.97;;;7.32;;
62724;SDS011;49026;52.600;4.694;2023-09-19T15:51:10;33.13;;;6.05;;
62724;SDS011;49026;52.600;4.694;2023-09-19T15:53:43;39.67;;;6.82;;